Telluride, CO

6:25 AM MDT on September 30, 2016 (GMT -0600)
Upper Benchmark | | Change Station

Elev 10118 ft 37.92 °N, 107.86 °W | Updated 8 seconds ago

Overcast
Overcast
41.5 °F
Feels Like 42 °F
N
0.0
Wind Variable Wind from SE
Gusts 0.0 mph

Today
High -- | Low -- °F
--% Chance of Precip.
Yesterday
High -- | Low -- °F
Precip. -- in
Pressure 30.51 in
Visibility 10.0 miles
Clouds Scattered Clouds 4900 ft
Scattered Clouds 6000 ft
Overcast 7000 ft
Windchill 42 °F
Dew Point 41 °F
Humidity 99%
Rainfall 0.00 in
Snow Depth Not available.
7:06 AM 6:54 PM
Waning Crescent, 0% visible
METAR KTEX 301215Z AUTO 00000KT 10SM SCT049 SCT060 OVC070 08/08 A3051 RMK AO2 T00790075
Pressure 30.51 in
Visibility 10.0 miles
Clouds Scattered Clouds 4900 ft
Scattered Clouds 6000 ft
Overcast 7000 ft
Windchill 42 °F
Dew Point 41 °F
Humidity 99%
Rainfall 0.00 in
Snow Depth Not available.
7:06 AM 6:54 PM
Waning Crescent, 0% visible
METAR KTEX 301215Z AUTO 00000KT 10SM SCT049 SCT060 OVC070 08/08 A3051 RMK AO2 T00790075

10-Day Weather Forecast

Almanac

Astronomy

Sep. 30, 2016 Rise Set
Actual Time
Civil Twilight
Nautical Twilight
Astronomical Twilight
Moon
Length of Visible Light
Length of Day
Tomorrow will be .
, % of the Moon is Illuminated

Today's Extremes

State Highs State Lows

Community

WunderPhotos

Upload Photos

1,942,708 photos uploaded!

WunderBlog® & News

Nearby

Air Quality

  Air Quality AQ Index Pollutant
Not available.

Snow Depth

Station Depth Elevation

Earthquake Activity

City Distance Mag. Time & Date
Minimum magnitude displayed is 2.5.

Coastal Water Temperatures

Place Temperature

Stations

Nearby Weather Stations

Station Location Temp. Windchill Dew Point Humidity Wind Precip. Elev Updated Type
                   

Watches & Warnings

There are currently no watches in effect.